createdAt,value
2017-07-04T00:02:26.286Z,85.80
2017-07-04T00:04:55.970Z,85.90
2017-07-04T00:07:25.315Z,86.00
2017-07-04T00:09:53.671Z,86.00
2017-07-04T00:12:22.280Z,86.20
2017-07-04T00:14:50.768Z,86.10
2017-07-04T00:17:19.128Z,86.40
2017-07-04T00:19:47.975Z,86.50
2017-07-04T00:22:16.415Z,86.60
2017-07-04T00:24:45.037Z,86.70
2017-07-04T00:27:13.922Z,86.80
2017-07-04T00:29:42.476Z,86.60
2017-07-04T00:32:12.784Z,86.60
2017-07-04T00:34:42.117Z,86.70
2017-07-04T00:37:11.742Z,86.50
2017-07-04T00:39:40.249Z,86.20
2017-07-04T00:42:09.201Z,86.00
2017-07-04T00:44:37.588Z,85.90
2017-07-04T00:47:05.989Z,85.50
2017-07-04T00:49:34.905Z,85.30
2017-07-04T00:52:03.250Z,85.20
2017-07-04T00:54:31.573Z,84.40
2017-07-04T00:57:00.556Z,84.40
2017-07-04T00:59:30.031Z,84.40
2017-07-04T01:01:58.425Z,84.20
2017-07-04T01:04:28.467Z,83.80
2017-07-04T01:06:56.831Z,84.00
2017-07-04T01:09:25.192Z,83.80
2017-07-04T01:11:59.285Z,83.60
2017-07-04T01:14:28.373Z,83.70
2017-07-04T01:16:56.738Z,83.80
2017-07-04T01:19:25.545Z,83.60
2017-07-04T01:21:53.893Z,83.70
2017-07-04T01:24:22.320Z,83.50
2017-07-04T01:26:50.720Z,83.30
2017-07-04T01:29:19.146Z,83.40
2017-07-04T01:31:48.604Z,83.40
2017-07-04T01:34:17.208Z,83.50
2017-07-04T01:36:46.737Z,83.00
2017-07-04T01:39:15.193Z,83.00
2017-07-04T01:41:43.907Z,82.50
2017-07-04T01:44:12.351Z,82.50
2017-07-04T01:46:40.904Z,82.30
2017-07-04T01:49:09.577Z,82.20
2017-07-04T01:51:38.034Z,82.10
2017-07-04T01:54:06.521Z,82.00
2017-07-04T01:56:35.032Z,82.20
2017-07-04T01:59:03.846Z,82.20
2017-07-04T02:01:36.170Z,82.20
2017-07-04T02:04:04.544Z,82.40
2017-07-04T02:06:32.882Z,82.40
2017-07-04T02:09:01.601Z,82.40
2017-07-04T02:11:29.955Z,82.80
2017-07-04T02:13:58.313Z,83.00
2017-07-04T02:16:26.837Z,83.40
2017-07-04T02:18:55.214Z,83.70
2017-07-04T02:21:23.580Z,84.00
2017-07-04T02:23:52.228Z,84.20
2017-07-04T02:26:26.156Z,84.30
2017-07-04T02:28:55.089Z,84.30
2017-07-04T02:31:23.405Z,84.20
2017-07-04T02:33:51.773Z,84.10
2017-07-04T02:36:20.609Z,83.90
2017-07-04T02:38:48.962Z,83.80
2017-07-04T02:41:17.438Z,83.50
2017-07-04T02:43:46.085Z,83.60
2017-07-04T02:46:14.487Z,83.40
2017-07-04T02:48:43.019Z,83.30
2017-07-04T02:51:11.670Z,83.10
2017-07-04T02:53:40.057Z,83.30
2017-07-04T02:56:08.450Z,83.10
2017-07-04T02:58:36.868Z,82.80
2017-07-04T03:01:05.473Z,82.80
2017-07-04T03:03:33.796Z,82.70
2017-07-04T03:06:02.461Z,83.00
2017-07-04T03:08:30.848Z,83.10
2017-07-04T03:10:59.245Z,83.20
2017-07-04T03:13:27.907Z,83.40
2017-07-04T03:15:56.259Z,83.50
2017-07-04T03:18:24.604Z,83.70
2017-07-04T03:20:53.085Z,83.80
2017-07-04T03:23:21.416Z,83.80
2017-07-04T03:25:49.862Z,84.20
2017-07-04T03:28:18.370Z,84.40
2017-07-04T03:30:46.720Z,84.40
2017-07-04T03:33:15.104Z,84.60
2017-07-04T03:35:43.853Z,84.80
2017-07-04T03:38:12.347Z,84.70
2017-07-04T03:40:40.732Z,84.90
2017-07-04T03:43:09.263Z,85.00
2017-07-04T03:45:37.686Z,84.90
2017-07-04T03:48:07.047Z,84.90
2017-07-04T03:50:35.556Z,84.90
2017-07-04T03:53:03.905Z,84.70
2017-07-04T03:55:33.203Z,85.00
2017-07-04T03:58:01.789Z,84.70
2017-07-04T04:00:31.167Z,84.70
2017-07-04T04:03:01.568Z,84.60
2017-07-04T04:05:30.093Z,84.60
2017-07-04T04:07:58.468Z,84.50
2017-07-04T04:10:26.797Z,84.30
2017-07-04T04:12:56.591Z,84.40
2017-07-04T04:15:24.939Z,84.00
2017-07-04T04:17:53.328Z,83.90
2017-07-04T04:20:22.002Z,83.70
2017-07-04T04:22:50.359Z,83.40
2017-07-04T04:25:18.705Z,83.30
2017-07-04T04:27:47.375Z,83.10
2017-07-04T04:30:15.828Z,82.90
2017-07-04T04:32:44.489Z,82.50
2017-07-04T04:35:13.067Z,81.90
2017-07-04T04:37:41.542Z,82.30
2017-07-04T04:40:10.022Z,81.40
2017-07-04T04:42:38.799Z,81.30
2017-07-04T04:45:07.176Z,80.70
2017-07-04T04:47:39.651Z,80.10
2017-07-04T04:50:08.235Z,79.50
2017-07-04T04:52:36.612Z,79.10
2017-07-04T04:55:05.148Z,78.60
2017-07-04T04:57:33.467Z,78.50
2017-07-04T05:00:01.829Z,78.10
2017-07-04T05:02:30.373Z,77.80
2017-07-04T05:04:58.826Z,77.90
2017-07-04T05:07:27.188Z,78.30
2017-07-04T05:09:57.570Z,78.00
2017-07-04T05:12:25.881Z,78.10
2017-07-04T05:14:54.188Z,79.10
2017-07-04T05:17:23.456Z,78.50
2017-07-04T05:19:51.785Z,78.50
2017-07-04T05:22:20.119Z,78.30
2017-07-04T05:24:48.714Z,77.60
2017-07-04T05:27:17.105Z,77.10
2017-07-04T05:29:45.458Z,76.40
2017-07-04T05:32:13.956Z,75.90
2017-07-04T05:34:42.460Z,75.60
2017-07-04T05:37:10.899Z,75.00
2017-07-04T05:39:39.591Z,75.00
2017-07-04T05:42:08.250Z,74.20
2017-07-04T05:44:36.575Z,74.50
2017-07-04T05:47:05.065Z,74.00
2017-07-04T05:49:33.388Z,74.10
2017-07-04T05:52:07.088Z,74.00
2017-07-04T05:54:35.459Z,73.90
2017-07-04T05:57:03.833Z,73.50
2017-07-04T05:59:32.385Z,74.00
2017-07-04T06:02:01.749Z,72.40
2017-07-04T06:04:30.117Z,72.30
2017-07-04T06:06:58.653Z,72.80
2017-07-04T06:09:27.032Z,72.70
2017-07-04T06:11:55.415Z,73.30
2017-07-04T06:14:23.974Z,72.70
2017-07-04T06:16:52.636Z,73.60
2017-07-04T06:19:20.981Z,73.70
2017-07-04T06:21:49.767Z,73.50
2017-07-04T06:24:19.334Z,73.10
2017-07-04T06:26:47.672Z,73.60
2017-07-04T06:29:16.373Z,73.20
2017-07-04T06:31:44.854Z,73.20
2017-07-04T06:34:13.315Z,73.70
2017-07-04T06:36:42.079Z,73.40
2017-07-04T06:39:11.266Z,71.50
2017-07-04T06:41:39.637Z,71.40
2017-07-04T06:44:08.317Z,70.90
2017-07-04T06:46:36.748Z,70.70
2017-07-04T06:49:06.161Z,70.20
2017-07-04T06:51:35.018Z,69.40
2017-07-04T06:54:03.403Z,69.80
2017-07-04T06:56:32.426Z,68.70
2017-07-04T06:59:00.899Z,68.60
2017-07-04T07:01:29.332Z,67.40
2017-07-04T07:03:58.151Z,66.60
2017-07-04T07:06:33.102Z,67.40
2017-07-04T07:09:04.698Z,66.10
2017-07-04T07:11:35.369Z,66.10
2017-07-04T07:14:24.424Z,63.90
2017-07-04T07:16:53.912Z,63.30
2017-07-04T07:19:22.418Z,62.30
2017-07-04T07:21:50.770Z,60.60
2017-07-04T07:24:19.537Z,59.20
2017-07-04T07:26:48.032Z,59.40
2017-07-04T07:29:17.545Z,59.50
2017-07-04T07:31:50.562Z,58.90
2017-07-04T07:34:18.965Z,59.20
2017-07-04T07:36:47.653Z,59.70
2017-07-04T07:39:17.415Z,59.90
2017-07-04T07:41:45.794Z,60.50
2017-07-04T07:44:14.322Z,60.30
2017-07-04T07:46:43.522Z,59.80
2017-07-04T07:49:12.922Z,60.70
2017-07-04T07:51:41.542Z,60.20
2017-07-04T07:54:12.082Z,59.80
2017-07-04T07:56:40.517Z,59.60
2017-07-04T07:59:10.172Z,59.80
2017-07-04T08:01:41.395Z,59.60
2017-07-04T08:04:10.395Z,59.60
2017-07-04T08:06:41.765Z,59.00
2017-07-04T08:09:11.836Z,60.20
2017-07-04T08:11:42.665Z,59.70
2017-07-04T08:14:12.546Z,60.30
2017-07-04T08:16:41.682Z,61.20
2017-07-04T08:19:10.555Z,61.30
2017-07-04T08:21:39.227Z,61.80
2017-07-04T08:24:09.278Z,61.80
2017-07-04T08:26:37.897Z,62.50
2017-07-04T08:29:06.612Z,62.90
2017-07-04T08:31:34.970Z,62.70
2017-07-04T08:34:05.520Z,63.40
2017-07-04T08:36:36.248Z,62.90
2017-07-04T08:39:04.801Z,63.30
2017-07-04T08:41:33.178Z,63.10
2017-07-04T08:44:01.769Z,63.90
2017-07-04T08:46:30.149Z,62.90
2017-07-04T08:48:58.541Z,62.70
2017-07-04T08:51:27.214Z,63.00
2017-07-04T08:53:55.792Z,62.90
2017-07-04T08:56:24.189Z,60.90
2017-07-04T08:58:52.616Z,60.70
2017-07-04T09:01:21.096Z,61.00
2017-07-04T09:03:49.530Z,60.70
2017-07-04T09:06:22.632Z,60.80
2017-07-04T09:08:52.096Z,61.00
2017-07-04T09:11:20.588Z,61.80
2017-07-04T09:13:49.394Z,62.10
2017-07-04T09:16:17.729Z,61.10
2017-07-04T09:18:46.106Z,59.70
2017-07-04T09:21:14.765Z,60.50
2017-07-04T09:23:43.208Z,59.70
2017-07-04T09:26:11.692Z,60.70
2017-07-04T09:28:40.498Z,61.20
2017-07-04T09:31:09.252Z,61.30
2017-07-04T09:33:37.725Z,60.90
2017-07-04T09:36:06.645Z,61.00
2017-07-04T09:38:37.555Z,61.00
2017-07-04T09:41:06.094Z,60.90
2017-07-04T09:43:34.673Z,61.00
2017-07-04T09:46:03.044Z,58.80
2017-07-04T09:48:31.419Z,57.80
2017-07-04T09:51:00.044Z,57.70
2017-07-04T09:53:28.687Z,56.90
2017-07-04T09:55:57.242Z,57.00
2017-07-04T09:58:26.901Z,56.90
2017-07-04T10:00:55.247Z,56.90
2017-07-04T10:03:23.573Z,56.50
2017-07-04T10:05:52.235Z,56.90
2017-07-04T10:08:22.725Z,57.20
2017-07-04T10:10:51.597Z,57.60
2017-07-04T10:13:21.512Z,57.10
2017-07-04T10:15:49.846Z,57.50
2017-07-04T10:18:18.409Z,57.10
2017-07-04T10:20:48.287Z,56.90
2017-07-04T10:23:16.776Z,57.60
2017-07-04T10:25:45.156Z,57.90
2017-07-04T10:28:13.742Z,57.90
2017-07-04T10:30:42.218Z,57.80
2017-07-04T10:33:11.523Z,56.40
2017-07-04T10:35:40.771Z,54.00
2017-07-04T10:38:09.858Z,53.40
2017-07-04T10:40:38.469Z,52.10
2017-07-04T10:43:07.302Z,51.00
2017-07-04T10:45:35.681Z,50.20
2017-07-04T10:48:04.047Z,50.00
2017-07-04T10:50:32.544Z,51.10
2017-07-04T10:53:00.918Z,51.40
2017-07-04T10:55:29.288Z,52.70
2017-07-04T10:57:57.775Z,51.70
2017-07-04T11:00:26.141Z,52.90
2017-07-04T11:02:54.478Z,54.90
2017-07-04T11:05:23.159Z,56.20
2017-07-04T11:07:51.548Z,56.40
2017-07-04T11:10:19.925Z,57.50
2017-07-04T11:12:48.464Z,58.20
2017-07-04T11:15:17.075Z,58.60
2017-07-04T11:17:45.554Z,59.30
2017-07-04T11:20:19.023Z,59.00
2017-07-04T11:22:47.481Z,56.50
2017-07-04T11:25:16.986Z,53.80
2017-07-04T11:27:46.102Z,51.10
2017-07-04T11:30:14.711Z,50.20
2017-07-04T11:32:43.172Z,50.70
2017-07-04T11:35:12.182Z,50.50
2017-07-04T11:37:41.950Z,51.80
2017-07-04T11:40:10.604Z,52.60
2017-07-04T11:42:42.500Z,52.70
2017-07-04T11:45:11.239Z,53.50
2017-07-04T11:47:40.156Z,55.10
2017-07-04T11:50:09.538Z,56.40
2017-07-04T11:52:39.250Z,57.80
2017-07-04T11:55:10.178Z,57.40
2017-07-04T11:57:39.207Z,57.90
2017-07-04T12:00:09.935Z,57.70
2017-07-04T12:02:38.928Z,57.30
2017-07-04T12:05:07.638Z,55.40
2017-07-04T12:07:35.966Z,54.50
2017-07-04T12:10:07.656Z,53.80
2017-07-04T12:12:36.256Z,54.20
2017-07-04T12:15:05.504Z,55.40
2017-07-04T12:17:34.158Z,56.40
2017-07-04T12:20:02.965Z,58.20
2017-07-04T12:22:31.311Z,56.90
2017-07-04T12:25:03.635Z,56.40
2017-07-04T12:27:32.384Z,56.80
2017-07-04T12:30:00.816Z,57.10
2017-07-04T12:32:29.231Z,56.60
2017-07-04T12:34:58.730Z,55.90
2017-07-04T12:37:27.073Z,55.40
2017-07-04T12:39:56.435Z,55.90
2017-07-04T12:42:24.931Z,56.40
2017-07-04T12:44:53.372Z,56.00
2017-07-04T12:47:21.893Z,57.00
2017-07-04T12:49:50.483Z,56.70
2017-07-04T12:52:19.099Z,55.70
2017-07-04T12:54:48.492Z,55.80
2017-07-04T12:57:17.131Z,54.00
2017-07-04T12:59:45.691Z,54.50
2017-07-04T13:02:14.168Z,53.80
2017-07-04T13:04:42.906Z,53.60
2017-07-04T13:07:11.318Z,50.70
2017-07-04T13:09:40.384Z,48.30
2017-07-04T13:12:09.046Z,48.70
2017-07-04T13:14:37.553Z,49.30
2017-07-04T13:17:06.107Z,49.60
2017-07-04T13:19:35.882Z,49.80
2017-07-04T13:22:04.313Z,50.20
2017-07-04T13:24:32.668Z,50.40
2017-07-04T13:27:01.323Z,51.00
2017-07-04T13:29:29.711Z,50.80
2017-07-04T13:32:00.067Z,50.70
2017-07-04T13:34:28.463Z,49.70
2017-07-04T13:36:56.908Z,52.00
2017-07-04T13:39:25.426Z,53.00
2017-07-04T13:41:54.974Z,53.30
2017-07-04T13:44:23.389Z,52.20
2017-07-04T13:46:53.933Z,51.90
2017-07-04T13:49:22.721Z,49.60
2017-07-04T13:51:51.081Z,49.80
2017-07-04T13:54:19.542Z,51.10
2017-07-04T13:56:49.245Z,51.00
2017-07-04T13:59:17.757Z,51.80
2017-07-04T14:01:46.950Z,52.70
2017-07-04T14:04:15.867Z,52.20
2017-07-04T14:06:44.803Z,54.20
2017-07-04T14:09:14.288Z,54.40
2017-07-04T14:11:42.991Z,55.10
2017-07-04T14:14:11.511Z,54.90
2017-07-04T14:16:40.018Z,55.80
2017-07-04T14:19:08.829Z,57.20
2017-07-04T14:21:37.588Z,58.00
2017-07-04T14:24:06.366Z,58.30
2017-07-04T14:26:35.008Z,58.60
2017-07-04T14:29:07.596Z,58.30
2017-07-04T14:31:36.152Z,58.80
2017-07-04T14:34:04.570Z,59.00
2017-07-04T14:36:32.967Z,59.40
2017-07-04T14:39:05.387Z,58.80
2017-07-04T14:41:33.713Z,56.20
2017-07-04T14:44:02.074Z,57.10
2017-07-04T14:46:30.839Z,57.70
2017-07-04T14:48:59.299Z,58.30
2017-07-04T14:51:28.274Z,58.20
2017-07-04T14:53:58.357Z,58.50
2017-07-04T14:56:26.794Z,58.50
2017-07-04T14:58:57.626Z,57.80
2017-07-04T15:01:26.577Z,56.20
2017-07-04T15:03:55.159Z,56.10
2017-07-04T15:06:23.894Z,55.10
2017-07-04T15:08:53.269Z,53.00
2017-07-04T15:11:21.900Z,53.30
2017-07-04T15:13:50.575Z,54.00
2017-07-04T15:16:19.776Z,54.40
2017-07-04T15:18:48.646Z,54.40
2017-07-04T15:21:17.522Z,55.20
2017-07-04T15:23:46.815Z,55.70
2017-07-04T15:26:15.922Z,56.10
2017-07-04T15:28:46.886Z,56.30
2017-07-04T15:31:16.104Z,55.80
2017-07-04T15:33:45.237Z,55.30
2017-07-04T15:36:15.139Z,54.10
2017-07-04T15:38:44.233Z,52.80
2017-07-04T15:41:13.290Z,52.50
2017-07-04T15:43:41.924Z,53.30
2017-07-04T15:46:11.155Z,53.80
2017-07-04T15:48:41.748Z,54.00
2017-07-04T15:51:10.388Z,52.90
2017-07-04T15:53:39.664Z,50.20
2017-07-04T15:56:09.027Z,48.80
2017-07-04T15:58:38.084Z,46.70
2017-07-04T16:01:07.533Z,46.80
2017-07-04T16:03:36.043Z,45.20
2017-07-04T16:06:04.512Z,46.10
2017-07-04T16:08:33.089Z,46.80
2017-07-04T16:11:01.644Z,47.20
2017-07-04T16:13:30.244Z,46.30
2017-07-04T16:15:58.958Z,46.20
2017-07-04T16:18:28.291Z,44.90
2017-07-04T16:20:56.697Z,43.60
2017-07-04T16:23:26.611Z,43.00
2017-07-04T16:25:55.242Z,43.20
2017-07-04T16:28:23.703Z,43.60
2017-07-04T16:30:52.432Z,45.20
2017-07-04T16:33:20.842Z,45.40
2017-07-04T16:35:49.739Z,46.30
2017-07-04T16:38:18.826Z,47.40
2017-07-04T16:40:47.352Z,46.20
2017-07-04T16:43:16.046Z,44.50
2017-07-04T16:45:44.835Z,43.60
2017-07-04T16:48:13.661Z,44.50
2017-07-04T16:50:42.629Z,44.70
2017-07-04T16:53:12.264Z,43.40
2017-07-04T16:55:41.367Z,42.70
2017-07-04T16:58:10.030Z,44.10
2017-07-04T17:00:39.078Z,47.30
2017-07-04T17:03:08.610Z,49.10
2017-07-04T17:05:38.856Z,50.40
2017-07-04T17:08:09.107Z,51.90
2017-07-04T17:10:38.063Z,52.50
2017-07-04T17:13:06.447Z,52.50
2017-07-04T17:15:35.215Z,52.70
2017-07-04T17:18:03.690Z,52.00
2017-07-04T17:20:33.308Z,52.60
2017-07-04T17:23:03.123Z,52.90
2017-07-04T17:25:32.103Z,52.20
2017-07-04T17:28:00.576Z,50.90
2017-07-04T17:30:29.137Z,51.60
2017-07-04T17:32:57.579Z,51.50
2017-07-04T17:35:26.534Z,52.40
2017-07-04T17:37:55.381Z,52.60
2017-07-04T17:40:25.172Z,53.50
2017-07-04T17:42:54.065Z,53.90
2017-07-04T17:45:23.776Z,54.40
2017-07-04T17:47:52.668Z,55.10
2017-07-04T17:50:21.010Z,55.50
2017-07-04T17:52:49.915Z,56.20
2017-07-04T17:55:18.284Z,56.20
2017-07-04T17:57:48.712Z,56.60
2017-07-04T18:00:18.613Z,56.30
2017-07-04T18:02:47.465Z,56.90
2017-07-04T18:05:16.526Z,57.40
2017-07-04T18:07:45.675Z,57.90
2017-07-04T18:10:14.864Z,58.00
2017-07-04T18:12:43.747Z,58.50
2017-07-04T18:15:12.534Z,58.60
2017-07-04T18:17:41.811Z,58.80
2017-07-04T18:20:14.560Z,59.10
2017-07-04T18:22:43.840Z,59.20
2017-07-04T18:25:12.484Z,59.50
2017-07-04T18:27:43.842Z,59.80
2017-07-04T18:30:12.803Z,60.20
2017-07-04T18:32:41.176Z,60.30
2017-07-04T18:35:10.374Z,60.80
2017-07-04T18:37:39.432Z,60.80
2017-07-04T18:40:10.049Z,61.10
2017-07-04T18:42:39.046Z,61.40
2017-07-04T18:45:07.893Z,61.70
2017-07-04T18:47:36.271Z,61.80
2017-07-04T18:50:04.933Z,62.40
2017-07-04T18:52:33.343Z,62.70
2017-07-04T18:55:02.560Z,62.90
2017-07-04T18:57:31.200Z,63.10
2017-07-04T18:59:59.660Z,63.30
2017-07-04T19:02:27.987Z,63.30
2017-07-04T19:04:57.755Z,63.60
2017-07-04T19:07:26.154Z,63.70
2017-07-04T19:09:54.531Z,64.30
2017-07-04T19:12:23.102Z,64.70
2017-07-04T19:14:51.954Z,65.20
2017-07-04T19:17:20.343Z,65.30
2017-07-04T19:19:49.045Z,65.30
2017-07-04T19:22:17.547Z,65.20
2017-07-04T19:24:45.973Z,65.10
2017-07-04T19:27:14.670Z,65.10
2017-07-04T19:29:43.076Z,65.20
2017-07-04T19:32:11.595Z,65.20
2017-07-04T19:34:41.714Z,65.30
2017-07-04T19:37:10.571Z,65.60
2017-07-04T19:39:39.338Z,65.60
2017-07-04T19:42:09.672Z,65.60
2017-07-04T19:44:38.373Z,66.00
2017-07-04T19:47:06.918Z,66.00
2017-07-04T19:49:36.874Z,66.20
2017-07-04T19:52:05.349Z,66.60
2017-07-04T19:54:34.650Z,66.90
2017-07-04T19:57:03.256Z,67.30
2017-07-04T19:59:31.664Z,67.50
2017-07-04T20:02:00.035Z,67.50
2017-07-04T20:04:28.761Z,68.10
2017-07-04T20:06:57.162Z,68.30
2017-07-04T20:09:25.638Z,68.40
2017-07-04T20:11:54.259Z,68.70
2017-07-04T20:14:24.683Z,68.50
2017-07-04T20:16:57.812Z,68.80
2017-07-04T20:19:26.144Z,68.80
2017-07-04T20:21:54.572Z,68.90
2017-07-04T20:24:24.064Z,69.00
2017-07-04T20:26:54.489Z,69.10
2017-07-04T20:29:22.901Z,69.50
2017-07-04T20:31:51.414Z,69.50
2017-07-04T20:34:19.965Z,69.70
2017-07-04T20:36:49.682Z,69.60
2017-07-04T20:39:18.786Z,69.70
2017-07-04T20:41:48.279Z,69.70
2017-07-04T20:44:17.059Z,69.90
2017-07-04T20:46:46.556Z,69.90
2017-07-04T20:49:15.122Z,69.80
2017-07-04T20:51:44.970Z,69.90
2017-07-04T20:54:14.789Z,70.20
2017-07-04T20:56:43.737Z,70.40
2017-07-04T20:59:12.229Z,70.60
2017-07-04T21:01:42.266Z,70.50
2017-07-04T21:04:10.857Z,70.30
2017-07-04T21:06:39.549Z,70.60
2017-07-04T21:09:09.445Z,70.90
2017-07-04T21:11:37.904Z,70.70
2017-07-04T21:14:06.612Z,71.10
2017-07-04T21:16:35.356Z,71.50
2017-07-04T21:19:09.709Z,71.50
2017-07-04T21:21:38.502Z,72.00
2017-07-04T21:24:09.165Z,72.20
2017-07-04T21:26:38.713Z,72.50
2017-07-04T21:29:07.538Z,72.70
2017-07-04T21:31:37.618Z,73.10
2017-07-04T21:34:05.968Z,73.10
2017-07-04T21:36:34.703Z,73.40
2017-07-04T21:39:03.190Z,73.60
2017-07-04T21:41:36.237Z,73.60
2017-07-04T21:44:04.762Z,73.70
2017-07-04T21:46:33.138Z,73.80
2017-07-04T21:49:02.607Z,74.20
2017-07-04T21:51:31.357Z,74.40
2017-07-04T21:53:59.707Z,74.90
2017-07-04T21:56:28.627Z,75.00
2017-07-04T21:58:56.993Z,75.20
2017-07-04T22:01:25.322Z,75.40
2017-07-04T22:03:54.319Z,75.50
2017-07-04T22:06:22.698Z,75.60
2017-07-04T22:08:52.134Z,75.70
2017-07-04T22:11:20.885Z,75.80
2017-07-04T22:13:49.527Z,75.90
2017-07-04T22:16:18.897Z,76.00
2017-07-04T22:18:47.641Z,76.10
2017-07-04T22:21:16.226Z,76.30
2017-07-04T22:23:44.816Z,76.50
2017-07-04T22:26:15.171Z,76.90
2017-07-04T22:28:43.715Z,76.70
2017-07-04T22:31:13.365Z,76.90
2017-07-04T22:33:41.905Z,76.90
2017-07-04T22:36:10.484Z,77.00
2017-07-04T22:38:39.685Z,77.00
2017-07-04T22:41:09.390Z,77.90
2017-07-04T22:43:37.759Z,77.20
2017-07-04T22:46:06.132Z,77.30
2017-07-04T22:48:34.511Z,77.50
2017-07-04T22:51:02.921Z,77.50
2017-07-04T22:53:31.279Z,77.50
2017-07-04T22:56:00.173Z,77.50
2017-07-04T22:58:28.497Z,77.60
2017-07-04T23:00:57.358Z,77.70
2017-07-04T23:03:26.530Z,77.80
2017-07-04T23:05:54.912Z,77.80
2017-07-04T23:08:23.389Z,77.80
2017-07-04T23:10:52.151Z,77.50
2017-07-04T23:13:20.542Z,77.50
2017-07-04T23:15:48.856Z,77.40
2017-07-04T23:18:17.599Z,77.40
2017-07-04T23:20:46.025Z,77.60
2017-07-04T23:23:14.559Z,77.80
2017-07-04T23:25:43.193Z,77.70
2017-07-04T23:28:11.523Z,77.90
2017-07-04T23:30:39.985Z,77.90
2017-07-04T23:33:08.774Z,78.10
2017-07-04T23:35:39.170Z,78.30
2017-07-04T23:38:07.617Z,78.30
2017-07-04T23:40:37.313Z,78.50
2017-07-04T23:43:05.666Z,78.50
2017-07-04T23:45:33.981Z,78.50
2017-07-04T23:48:02.650Z,78.50
2017-07-04T23:50:31.816Z,78.60
2017-07-04T23:53:00.194Z,78.40
2017-07-04T23:55:28.716Z,78.40
2017-07-04T23:57:57.041Z,78.40
